Time;durP1;ratioP1;P1;durP2;ratioP2;P2;SDS_P1;SDS_P2;PMS_P1;PMS_P2;Temp;Humidity;BMP_temperature;BMP_pressure;BME280_temperature;BME280_humidity;BME280_pressure;Samples;Min_cycle;Max_cycle;Signal;HPM_P1;HPM_P2
2023/07/20 00:02:05;;;;;;;9.20;4.57;;;;;;;16.13;85.05;101281.38;5070070;28;20027;-67
2023/07/20 00:04:30;;;;;;;8.85;4.68;;;;;;;16.14;85.63;101277.66;5086425;28;20032;-68
2023/07/20 00:06:56;;;;;;;11.52;4.85;;;;;;;16.12;85.88;101276.88;5084632;28;20047;-68
2023/07/20 00:09:21;;;;;;;9.05;5.40;;;;;;;16.07;86.25;101276.44;5085859;28;20803;-67
2023/07/20 00:11:51;;;;;;;8.48;4.97;;;;;;;16.04;86.25;101283.09;5086390;28;20394;-68
2023/07/20 00:14:17;;;;;;;10.55;5.30;;;;;;;16.03;86.02;101286.81;5078608;28;20442;-68
2023/07/20 00:16:43;;;;;;;9.85;5.60;;;;;;;16.02;86.67;101281.47;5083192;28;20028;-67
2023/07/20 00:19:10;;;;;;;13.23;5.07;;;;;;;15.96;86.72;101284.75;5066455;28;20391;-67
2023/07/20 00:21:36;;;;;;;10.50;5.28;;;;;;;15.90;86.75;101288.03;5066254;28;20434;-68
2023/07/20 00:24:02;;;;;;;9.00;4.53;;;;;;;15.86;86.56;101281.97;5076946;28;20047;-68
2023/07/20 00:26:27;;;;;;;8.18;4.72;;;;;;;15.84;86.50;101289.44;5086475;28;20044;-68
2023/07/20 00:28:52;;;;;;;10.80;5.10;;;;;;;15.86;85.68;101289.31;5079812;28;20028;-67
2023/07/20 00:31:18;;;;;;;9.48;4.88;;;;;;;15.81;85.79;101279.63;5067793;28;20067;-67
2023/07/20 00:33:44;;;;;;;10.63;5.35;;;;;;;15.82;87.31;101289.59;5070707;28;20472;-67
2023/07/20 00:36:09;;;;;;;10.15;5.55;;;;;;;15.80;87.89;101285.22;5069685;28;20061;-68
2023/07/20 00:38:34;;;;;;;12.80;5.53;;;;;;;15.79;88.32;101294.47;5068775;28;20111;-68
2023/07/20 00:41:00;;;;;;;11.80;5.55;;;;;;;15.80;87.60;101290.72;5069008;28;20122;-68
2023/07/20 00:43:25;;;;;;;9.80;5.32;;;;;;;15.81;88.35;101290.59;5070940;28;20147;-68
2023/07/20 00:45:51;;;;;;;17.30;5.97;;;;;;;15.80;88.51;101287.97;5068327;28;20040;-67
2023/07/20 00:48:17;;;;;;;11.65;5.65;;;;;;;15.81;87.26;101296.09;5083073;28;20422;-67
2023/07/20 00:50:42;;;;;;;15.63;5.45;;;;;;;15.79;87.18;101281.59;5086664;28;20172;-67
2023/07/20 00:53:08;;;;;;;13.80;5.03;;;;;;;15.81;86.81;101289.72;5069434;28;20048;-68
2023/07/20 00:55:34;;;;;;;16.17;5.93;;;;;;;15.79;87.77;101295.31;5068065;28;20031;-67
2023/07/20 00:58:00;;;;;;;11.95;4.82;;;;;;;15.75;88.07;101291.09;5067904;28;20036;-68
2023/07/20 01:00:25;;;;;;;13.38;5.28;;;;;;;15.71;89.81;101291.50;5086939;28;20561;-68
2023/07/20 01:02:51;;;;;;;16.05;5.63;;;;;;;15.57;90.29;101288.09;5077016;28;20043;-68
2023/07/20 01:05:17;;;;;;;7.43;5.22;;;;;;;15.51;92.13;101296.81;5069515;28;20048;-68
2023/07/20 01:07:57;;;;;;;9.20;4.97;;;;;;;15.52;89.83;101304.03;5079597;28;20052;-67
2023/07/20 01:10:33;;;;;;;11.07;5.03;;;;;;;15.60;88.62;101292.41;5088583;28;20024;-67
2023/07/20 01:13:01;;;;;;;12.77;5.68;;;;;;;15.64;89.06;101293.94;5088015;28;20408;-68
2023/07/20 01:15:26;;;;;;;15.57;6.35;;;;;;;15.67;89.29;101298.28;5069064;28;20036;-68
2023/07/20 01:17:52;;;;;;;14.98;5.50;;;;;;;15.69;88.98;101304.50;5080372;28;20577;-67
2023/07/20 01:20:21;;;;;;;13.48;5.10;;;;;;;15.72;88.34;101304.25;5087782;28;20036;-67
2023/07/20 01:23:22;;;;;;;12.98;5.95;;;;;;;15.78;88.54;101304.56;5085756;28;20841;-68
2023/07/20 01:25:56;;;;;;;12.68;5.43;;;;;;;15.81;88.56;101297.97;5087109;28;20032;-68
2023/07/20 01:28:43;;;;;;;11.00;5.60;;;;;;;15.86;88.68;101300.31;5086180;28;20457;-68
2023/07/20 01:31:29;;;;;;;9.07;5.68;;;;;;;15.92;87.75;101302.50;5082785;28;20040;-68
2023/07/20 01:33:58;;;;;;;14.05;5.40;;;;;;;15.95;88.60;101313.22;5061060;28;20037;-67
2023/07/20 01:36:25;;;;;;;10.38;5.60;;;;;;;15.98;89.26;101312.94;5068911;28;20055;-68
2023/07/20 01:38:51;;;;;;;17.10;5.72;;;;;;;15.98;90.03;101310.19;5066469;28;20506;-68
2023/07/20 01:41:17;;;;;;;10.48;5.13;;;;;;;16.00;90.28;101305.44;5066962;28;20644;-68
2023/07/20 01:43:43;;;;;;;12.55;6.28;;;;;;;16.02;90.26;101307.03;5068111;28;20067;-68
2023/07/20 01:46:09;;;;;;;14.93;5.78;;;;;;;16.05;89.76;101304.03;5068828;28;20570;-68
2023/07/20 01:48:34;;;;;;;11.00;5.75;;;;;;;16.08;90.04;101308.34;5085392;28;20054;-67
2023/07/20 01:51:00;;;;;;;14.27;6.07;;;;;;;16.06;90.19;101302.16;5088673;28;20040;-68
2023/07/20 01:53:26;;;;;;;10.65;5.72;;;;;;;16.07;90.15;101314.88;5087714;28;20164;-68
2023/07/20 01:55:54;;;;;;;12.10;5.90;;;;;;;16.03;90.27;101307.91;5067954;28;20043;-68
2023/07/20 01:58:20;;;;;;;11.95;6.07;;;;;;;16.04;89.70;101304.13;5084717;28;20089;-68
2023/07/20 02:00:49;;;;;;;10.68;5.78;;;;;;;16.00;89.88;101309.06;5067145;28;20032;-68
2023/07/20 02:03:14;;;;;;;13.32;6.22;;;;;;;15.99;89.72;101317.41;5072269;28;20173;-68
2023/07/20 02:05:42;;;;;;;13.65;6.07;;;;;;;15.98;89.74;101315.66;5067956;28;20036;-68
2023/07/20 02:08:09;;;;;;;12.50;5.88;;;;;;;15.94;89.19;101319.69;5076733;28;20043;-68
2023/07/20 02:10:35;;;;;;;11.05;6.55;;;;;;;15.91;90.37;101318.09;5088093;28;20074;-68
2023/07/20 02:13:00;;;;;;;11.77;6.57;;;;;;;15.91;89.89;101318.09;5088514;28;20040;-68
2023/07/20 02:15:27;;;;;;;8.77;5.68;;;;;;;15.93;89.78;101326.19;5085610;28;20024;-68
2023/07/20 02:17:52;;;;;;;9.38;6.07;;;;;;;15.93;89.59;101323.44;5084961;28;20395;-68
2023/07/20 02:20:19;;;;;;;16.17;7.65;;;;;;;15.92;91.04;101325.31;5086741;28;20039;-68
2023/07/20 02:22:44;;;;;;;14.15;7.47;;;;;;;15.90;90.44;101320.94;5073067;28;20036;-68
2023/07/20 02:25:10;;;;;;;15.10;7.95;;;;;;;15.89;90.00;101321.97;5067335;28;20024;-68
2023/07/20 02:27:36;;;;;;;13.32;7.30;;;;;;;15.89;90.50;101325.56;5067564;28;20169;-68
2023/07/20 02:30:03;;;;;;;11.82;7.78;;;;;;;15.92;90.53;101330.81;5081005;28;20036;-68
2023/07/20 02:32:30;;;;;;;12.77;7.53;;;;;;;15.92;90.32;101324.44;5071532;28;20071;-68
2023/07/20 02:34:55;;;;;;;11.65;8.18;;;;;;;15.97;90.79;101327.66;5048577;28;20033;-68
2023/07/20 02:37:21;;;;;;;11.63;7.15;;;;;;;15.98;90.29;101341.25;5065194;28;20039;-68
2023/07/20 02:39:47;;;;;;;13.68;6.85;;;;;;;15.97;90.71;101338.63;5083983;28;20052;-68
2023/07/20 02:42:13;;;;;;;13.13;7.53;;;;;;;15.98;90.70;101335.75;5087783;28;20036;-68
2023/07/20 02:44:38;;;;;;;10.82;7.03;;;;;;;15.97;90.70;101335.88;5084714;28;20357;-68
2023/07/20 02:47:05;;;;;;;13.95;7.50;;;;;;;15.99;91.47;101342.09;5084206;28;20115;-68
2023/07/20 02:49:31;;;;;;;12.23;7.72;;;;;;;15.98;90.94;101343.97;5088411;28;20479;-67
2023/07/20 02:51:57;;;;;;;12.40;8.18;;;;;;;15.98;91.54;101340.38;5085500;28;20036;-68
2023/07/20 02:54:22;;;;;;;12.70;8.00;;;;;;;15.99;90.81;101343.00;5085609;28;20043;-68
2023/07/20 02:56:48;;;;;;;14.18;8.88;;;;;;;15.97;90.66;101342.25;5085171;28;20050;-68
2023/07/20 02:59:13;;;;;;;17.05;9.48;;;;;;;15.95;90.91;101348.91;5077127;28;20373;-68
2023/07/20 03:01:38;;;;;;;15.07;8.73;;;;;;;15.96;90.62;101353.38;5066009;28;20070;-68
2023/07/20 03:04:04;;;;;;;15.00;9.90;;;;;;;15.92;90.96;101369.22;5087666;28;20040;-68
2023/07/20 03:06:29;;;;;;;16.45;10.77;;;;;;;15.89;91.54;101364.00;5087290;28;20388;-68
2023/07/20 03:08:55;;;;;;;18.27;11.30;;;;;;;15.88;92.99;101358.66;5086144;28;20044;-67
2023/07/20 03:11:20;;;;;;;14.32;10.90;;;;;;;15.85;92.16;101368.00;5085222;28;20059;-68
2023/07/20 03:13:47;;;;;;;16.50;11.07;;;;;;;15.82;93.46;101362.78;5085895;28;20433;-67
2023/07/20 03:16:15;;;;;;;18.20;10.43;;;;;;;15.79;92.12;101368.53;5085562;28;20048;-68
2023/07/20 03:18:42;;;;;;;17.35;11.02;;;;;;;15.73;92.92;101371.81;5083845;28;20035;-68
2023/07/20 03:21:13;;;;;;;12.30;9.38;;;;;;;15.70;92.70;101380.31;5085425;28;20073;-67
2023/07/20 03:23:40;;;;;;;14.15;8.63;;;;;;;15.68;91.68;101379.56;5085518;28;20023;-68
2023/07/20 03:26:08;;;;;;;12.75;8.45;;;;;;;15.68;92.43;101385.94;5084778;28;20028;-68
2023/07/20 03:28:34;;;;;;;14.57;9.82;;;;;;;15.67;92.00;101378.72;5067243;28;20036;-68
2023/07/20 03:31:00;;;;;;;14.65;9.20;;;;;;;15.65;91.44;101383.44;5087037;28;20106;-68
2023/07/20 03:33:28;;;;;;;16.10;9.63;;;;;;;15.63;91.76;101376.31;5069461;28;20032;-68
2023/07/20 03:35:54;;;;;;;14.32;9.07;;;;;;;15.57;92.47;101383.19;5065804;28;20048;-68
2023/07/20 03:38:23;;;;;;;13.30;8.65;;;;;;;15.53;92.49;101379.84;5066259;28;20086;-68
2023/07/20 03:40:54;;;;;;;13.02;8.95;;;;;;;15.48;93.14;101376.63;5066218;28;20500;-67
2023/07/20 03:43:19;;;;;;;10.48;7.80;;;;;;;15.46;92.28;101378.59;5065121;28;20579;-68
2023/07/20 03:45:48;;;;;;;12.18;8.07;;;;;;;15.44;92.40;101383.38;5079124;28;20067;-67
2023/07/20 03:48:15;;;;;;;11.45;8.45;;;;;;;15.39;92.40;101382.88;5083450;28;20115;-68
2023/07/20 03:50:41;;;;;;;12.77;7.60;;;;;;;15.37;92.48;101387.63;5081745;28;20139;-68
2023/07/20 03:53:06;;;;;;;11.90;7.93;;;;;;;15.31;92.71;101382.66;5066419;28;20524;-68
2023/07/20 03:55:32;;;;;;;9.77;7.47;;;;;;;15.30;91.37;101383.66;5077658;28;20019;-69
2023/07/20 03:57:57;;;;;;;10.60;7.85;;;;;;;15.27;91.56;101389.38;5085298;28;20046;-68
2023/07/20 04:00:23;;;;;;;12.38;7.57;;;;;;;15.25;91.41;101395.00;5083974;28;20484;-69
2023/07/20 04:02:49;;;;;;;11.85;7.25;;;;;;;15.23;90.85;101393.38;5083092;28;20491;-68
2023/07/20 04:05:14;;;;;;;11.10;7.50;;;;;;;15.19;90.49;101391.88;5088003;28;20112;-66
2023/07/20 04:07:40;;;;;;;10.30;7.97;;;;;;;15.13;91.16;101398.75;5077996;28;20443;-64
2023/07/20 04:10:05;;;;;;;12.02;8.25;;;;;;;15.10;90.87;101406.34;5068042;28;20036;-65
2023/07/20 04:12:31;;;;;;;11.18;7.97;;;;;;;15.06;91.12;101392.03;5070263;28;20058;-66
2023/07/20 04:14:56;;;;;;;9.75;7.03;;;;;;;15.03;90.49;101401.38;5084616;28;20027;-64
2023/07/20 04:17:21;;;;;;;14.50;7.95;;;;;;;15.01;90.42;101403.41;5081499;28;20032;-65
2023/07/20 04:19:47;;;;;;;10.38;7.07;;;;;;;14.99;90.44;101394.41;5070516;28;20432;-64
2023/07/20 04:22:15;;;;;;;9.45;7.15;;;;;;;14.97;90.69;101401.03;5068271;28;20047;-65
2023/07/20 04:24:44;;;;;;;13.27;7.65;;;;;;;14.94;90.61;101406.75;5068145;28;20565;-67
2023/07/20 04:27:09;;;;;;;12.27;7.03;;;;;;;14.91;90.22;101401.50;5048685;28;20047;-64
2023/07/20 04:29:34;;;;;;;9.15;6.40;;;;;;;14.88;89.76;101402.66;5059707;28;20020;-67
2023/07/20 04:32:00;;;;;;;11.45;7.22;;;;;;;14.85;90.41;101404.78;5068390;28;20039;-65
2023/07/20 04:34:25;;;;;;;11.15;7.70;;;;;;;14.83;90.28;101402.16;5069352;28;20024;-65
2023/07/20 04:36:51;;;;;;;12.05;8.13;;;;;;;14.82;90.61;101399.53;5068098;28;20052;-65
2023/07/20 04:39:17;;;;;;;13.25;7.72;;;;;;;14.83;91.21;101404.91;5068118;28;20407;-67
2023/07/20 04:41:43;;;;;;;9.52;7.20;;;;;;;14.88;90.46;101397.19;5074035;28;20037;-65
2023/07/20 04:44:09;;;;;;;9.68;6.25;;;;;;;14.92;89.48;101403.25;5085302;28;20476;-65
2023/07/20 04:46:34;;;;;;;11.77;7.32;;;;;;;14.93;89.90;101405.03;5087230;28;20040;-65
2023/07/20 04:49:02;;;;;;;10.43;7.70;;;;;;;14.96;89.52;101402.00;5048616;28;20035;-65
2023/07/20 04:51:30;;;;;;;12.32;7.28;;;;;;;14.98;89.62;101400.03;5050188;28;20033;-65
2023/07/20 04:53:56;;;;;;;9.80;7.38;;;;;;;14.98;89.93;101402.78;5049682;28;20284;-65
2023/07/20 04:56:23;;;;;;;9.95;6.72;;;;;;;14.98;89.37;101397.28;5047168;28;20029;-65
2023/07/20 04:58:49;;;;;;;9.90;6.63;;;;;;;14.99;89.57;101399.91;5056117;28;20024;-65
2023/07/20 05:01:14;;;;;;;9.88;6.75;;;;;;;14.98;89.65;101398.16;5088671;28;20054;-64
2023/07/20 05:03:40;;;;;;;12.50;7.53;;;;;;;14.98;89.96;101398.16;5086453;28;20067;-65
2023/07/20 05:06:07;;;;;;;9.93;7.78;;;;;;;14.98;90.75;101403.63;5088390;28;20035;-65
2023/07/20 05:08:33;;;;;;;10.90;8.15;;;;;;;15.00;91.45;101403.50;5082853;28;20036;-66
2023/07/20 05:10:59;;;;;;;11.45;7.72;;;;;;;15.01;90.34;101397.91;5066676;28;20089;-65
2023/07/20 05:13:25;;;;;;;8.68;6.72;;;;;;;15.04;90.47;101397.66;5072934;28;20036;-65
2023/07/20 05:15:54;;;;;;;10.52;7.57;;;;;;;15.07;90.41;101393.78;5066568;28;20410;-65
2023/07/20 05:18:20;;;;;;;11.05;8.05;;;;;;;15.10;90.73;101389.91;5078436;28;20032;-64
2023/07/20 05:20:47;;;;;;;12.95;8.48;;;;;;;15.10;91.09;101387.16;5066177;28;20031;-64
2023/07/20 05:23:14;;;;;;;12.00;8.40;;;;;;;15.13;90.66;101389.66;5066159;28;20043;-64
2023/07/20 05:25:39;;;;;;;13.13;9.00;;;;;;;15.18;90.15;101385.53;5068032;28;20032;-65
2023/07/20 05:28:04;;;;;;;14.63;9.55;;;;;;;15.22;90.18;101399.88;5050137;28;20451;-64
2023/07/20 05:30:30;;;;;;;13.32;8.40;;;;;;;15.25;90.02;101405.97;5066957;28;20036;-65
2023/07/20 05:32:55;;;;;;;14.20;9.35;;;;;;;15.25;90.88;101405.97;5063257;28;20045;-64
2023/07/20 05:35:22;;;;;;;12.82;9.20;;;;;;;15.27;91.25;101412.19;5068544;28;20084;-65
2023/07/20 05:37:47;;;;;;;14.18;9.68;;;;;;;15.29;91.04;101415.69;5067836;28;20837;-66
2023/07/20 05:40:14;;;;;;;15.00;9.85;;;;;;;15.35;91.56;101417.03;5067916;28;20151;-64
2023/07/20 05:42:40;;;;;;;15.38;9.10;;;;;;;15.36;92.05;101418.78;5068437;28;20036;-66
2023/07/20 05:45:05;;;;;;;12.63;9.52;;;;;;;15.37;92.50;101420.50;5075283;28;20028;-64
2023/07/20 05:47:32;;;;;;;12.48;9.20;;;;;;;15.41;92.32;101418.41;5083547;28;20464;-68
2023/07/20 05:49:57;;;;;;;13.27;8.85;;;;;;;15.44;92.18;101429.13;5088632;28;20020;-67
2023/07/20 05:52:23;;;;;;;12.10;8.45;;;;;;;15.49;91.85;101424.97;5074860;28;20123;-65
2023/07/20 05:54:48;;;;;;;12.82;8.38;;;;;;;15.52;91.93;101421.97;5067752;28;20032;-65
2023/07/20 05:57:13;;;;;;;13.18;8.57;;;;;;;15.56;92.23;101426.19;5068215;28;20039;-64
2023/07/20 05:59:40;;;;;;;13.07;8.18;;;;;;;15.59;92.35;101426.94;5078332;28;20097;-65
2023/07/20 06:02:06;;;;;;;13.52;7.90;;;;;;;15.67;92.39;101427.22;5080409;28;20068;-64
2023/07/20 06:04:32;;;;;;;11.40;8.18;;;;;;;15.71;92.74;101436.91;5088358;28;20036;-65
2023/07/20 06:06:57;;;;;;;12.80;6.97;;;;;;;15.72;90.81;101423.06;5087780;28;20043;-68
2023/07/20 06:09:23;;;;;;;11.50;8.27;;;;;;;15.79;91.89;101437.13;5077804;28;20168;-65
2023/07/20 06:11:48;;;;;;;8.57;7.03;;;;;;;15.81;89.80;101437.88;5060555;28;20037;-64
2023/07/20 06:14:14;;;;;;;9.95;7.32;;;;;;;15.83;90.35;101441.34;5068057;28;20662;-67
2023/07/20 06:16:39;;;;;;;11.77;7.85;;;;;;;15.90;91.09;101442.59;5067488;28;20384;-64
2023/07/20 06:19:04;;;;;;;10.10;6.68;;;;;;;15.99;89.27;101449.13;5088470;28;20040;-64
2023/07/20 06:21:30;;;;;;;13.82;7.93;;;;;;;16.05;88.75;101449.50;5088266;28;20063;-64
2023/07/20 06:23:55;;;;;;;9.70;8.15;;;;;;;16.13;88.23;101459.81;5088721;28;20046;-65
2023/07/20 06:26:20;;;;;;;12.10;7.75;;;;;;;16.24;88.67;101451.53;5072381;28;20032;-65
2023/07/20 06:28:46;;;;;;;12.88;7.50;;;;;;;16.37;88.71;101450.44;5070334;28;20501;-64
2023/07/20 06:31:11;;;;;;;10.30;6.63;;;;;;;16.50;86.97;101449.22;5088223;28;20046;-65
2023/07/20 06:33:37;;;;;;;9.15;7.15;;;;;;;16.62;87.38;101444.56;5086365;28;20111;-65
2023/07/20 06:36:03;;;;;;;14.60;7.90;;;;;;;16.59;87.46;101440.19;5079968;28;20077;-65
2023/07/20 06:38:29;;;;;;;9.93;7.88;;;;;;;16.51;87.25;101440.00;5066730;28;20043;-65
2023/07/20 06:40:54;;;;;;;12.80;7.18;;;;;;;16.65;87.54;101440.69;5067724;28;20052;-65
2023/07/20 06:43:20;;;;;;;12.43;7.55;;;;;;;16.81;86.63;101443.81;5066886;28;20055;-64
2023/07/20 06:45:51;;;;;;;10.70;7.43;;;;;;;16.92;85.43;101442.84;5067359;28;20044;-65
2023/07/20 06:48:16;;;;;;;12.32;7.20;;;;;;;16.94;85.75;101441.72;5067766;28;20044;-64
2023/07/20 06:50:42;;;;;;;7.80;6.30;;;;;;;16.99;84.63;101442.16;5067318;28;20541;-64
2023/07/20 06:53:08;;;;;;;9.00;6.57;;;;;;;17.12;84.81;101441.06;5067031;28;20028;-65
2023/07/20 06:55:33;;;;;;;8.13;6.18;;;;;;;17.13;83.19;101438.16;5065459;28;20163;-64
2023/07/20 06:57:58;;;;;;;9.10;7.10;;;;;;;17.02;83.45;101449.25;5067240;28;20074;-65
2023/07/20 07:00:24;;;;;;;11.15;6.93;;;;;;;16.92;83.90;101451.09;5084016;28;20401;-65
2023/07/20 07:02:49;;;;;;;9.80;6.55;;;;;;;16.93;84.44;101452.84;5076320;28;20221;-64
2023/07/20 07:05:15;;;;;;;6.82;5.65;;;;;;;17.00;83.17;101446.66;5067039;28;20044;-65
2023/07/20 07:07:40;;;;;;;8.70;6.32;;;;;;;17.11;82.46;101453.91;5066838;28;20032;-64
2023/07/20 07:10:06;;;;;;;9.73;6.05;;;;;;;17.14;82.83;101459.16;5066645;28;20048;-64
2023/07/20 07:12:32;;;;;;;6.70;4.97;;;;;;;17.23;82.74;101446.44;5082113;28;20450;-65
2023/07/20 07:14:58;;;;;;;8.55;6.05;;;;;;;17.28;81.79;101456.03;5072800;28;20086;-68
2023/07/20 07:17:23;;;;;;;9.38;6.10;;;;;;;17.33;81.69;101452.84;5073090;28;20043;-65
2023/07/20 07:19:48;;;;;;;7.47;5.22;;;;;;;17.46;82.08;101450.72;5087325;28;20082;-64
2023/07/20 07:22:14;;;;;;;7.03;4.82;;;;;;;17.69;81.10;101454.09;5076762;28;20392;-64
2023/07/20 07:24:41;;;;;;;6.30;4.68;;;;;;;17.92;80.38;101465.75;5066455;28;20072;-65
2023/07/20 07:27:08;;;;;;;6.70;5.40;;;;;;;17.91;78.47;101453.00;5066466;28;20076;-64
2023/07/20 07:29:33;;;;;;;6.22;4.70;;;;;;;18.01;80.64;101458.50;5075992;28;20040;-65
2023/07/20 07:31:59;;;;;;;4.82;4.15;;;;;;;18.25;81.00;101456.19;5083764;28;20039;-64
2023/07/20 07:34:25;;;;;;;6.57;4.55;;;;;;;18.36;77.80;101449.63;5086491;28;20452;-65
2023/07/20 07:36:50;;;;;;;5.50;4.20;;;;;;;18.33;78.26;101449.97;5086152;28;20481;-64
2023/07/20 07:39:16;;;;;;;4.18;3.67;;;;;;;18.43;77.07;101455.44;5069543;28;20044;-65
2023/07/20 07:41:41;;;;;;;5.05;3.58;;;;;;;18.49;77.55;101457.59;5066553;28;20163;-64
2023/07/20 07:44:06;;;;;;;4.28;3.17;;;;;;;18.45;74.89;101467.19;5071820;28;20541;-64
2023/07/20 07:46:32;;;;;;;5.30;3.00;;;;;;;18.48;76.36;101458.63;5086966;28;20036;-65
2023/07/20 07:48:57;;;;;;;4.70;3.10;;;;;;;18.52;77.29;101460.94;5066954;28;20115;-68
2023/07/20 07:51:23;;;;;;;4.80;3.45;;;;;;;18.49;75.64;101471.38;5066998;28;20025;-64
2023/07/20 07:53:49;;;;;;;5.43;3.22;;;;;;;18.48;76.43;101472.41;5066383;28;20189;-65
2023/07/20 07:56:14;;;;;;;3.92;2.65;;;;;;;18.43;77.20;101467.34;5070249;28;20489;-65
2023/07/20 07:58:40;;;;;;;3.80;2.38;;;;;;;18.42;76.90;101467.47;5066673;28;20074;-64
2023/07/20 08:01:05;;;;;;;5.13;3.00;;;;;;;18.39;76.85;101473.28;5067002;28;20094;-65
2023/07/20 08:03:31;;;;;;;3.88;2.85;;;;;;;18.36;74.94;101471.69;5081785;28;20399;-65
2023/07/20 08:05:56;;;;;;;3.90;2.63;;;;;;;18.39;77.13;101479.66;5084415;28;20038;-64
2023/07/20 08:08:22;;;;;;;4.05;2.78;;;;;;;18.52;75.60;101480.22;5066184;28;20033;-65
2023/07/20 08:10:48;;;;;;;2.25;2.05;;;;;;;18.86;74.45;101479.75;5065806;28;20035;-64
2023/07/20 08:13:14;;;;;;;2.53;1.90;;;;;;;19.32;73.54;101487.13;5066310;28;20082;-64
2023/07/20 08:15:40;;;;;;;2.00;1.60;;;;;;;19.92;69.39;101483.91;5082781;28;20376;-66
2023/07/20 08:18:05;;;;;;;2.03;1.50;;;;;;;20.12;68.49;101488.25;5085130;28;20036;-65
2023/07/20 08:20:32;;;;;;;2.83;1.58;;;;;;;20.57;68.02;101478.16;5086487;28;20040;-65
2023/07/20 08:22:59;;;;;;;1.88;1.70;;;;;;;21.28;65.40;101485.34;5086545;28;20434;-69
2023/07/20 08:25:25;;;;;;;1.90;1.60;;;;;;;21.41;61.92;101482.16;5074030;28;20476;-66
2023/07/20 08:27:50;;;;;;;1.90;1.40;;;;;;;21.88;64.14;101480.56;5065929;28;20031;-66
2023/07/20 08:30:15;;;;;;;1.67;1.40;;;;;;;22.56;60.67;101479.44;5064907;28;20565;-66
2023/07/20 08:32:41;;;;;;;3.17;1.30;;;;;;;22.79;59.56;101485.13;5070072;28;20032;-65
2023/07/20 08:35:06;;;;;;;2.88;1.20;;;;;;;22.46;57.45;101486.22;5066585;28;20037;-65
2023/07/20 08:37:32;;;;;;;0.80;0.80;;;;;;;22.24;59.25;101482.19;5065526;28;20029;-66
2023/07/20 08:39:57;;;;;;;1.25;1.00;;;;;;;22.13;58.83;101484.28;5065854;28;20139;-69
2023/07/20 08:42:23;;;;;;;1.50;1.10;;;;;;;21.89;57.79;101481.44;5066809;28;20032;-64
2023/07/20 08:44:49;;;;;;;3.13;1.00;;;;;;;21.55;60.12;101478.75;5077084;28;20036;-64
2023/07/20 08:47:17;;;;;;;2.95;1.20;;;;;;;21.42;61.44;101478.34;5080102;28;20039;-65
2023/07/20 08:49:42;;;;;;;2.95;1.38;;;;;;;21.29;59.49;101476.00;5066221;28;20495;-67
2023/07/20 08:52:08;;;;;;;2.15;1.33;;;;;;;21.41;61.93;101473.84;5063243;28;20040;-64
2023/07/20 08:54:35;;;;;;;2.25;1.20;;;;;;;21.59;58.84;101469.03;5089949;28;20488;-64
2023/07/20 08:57:05;;;;;;;3.20;1.40;;;;;;;21.70;58.21;101471.53;5089577;28;20020;-65
2023/07/20 08:59:32;;;;;;;1.30;1.20;;;;;;;21.98;58.42;101477.66;5083924;28;20115;-65
2023/07/20 09:01:58;;;;;;;1.40;1.15;;;;;;;22.67;55.79;101473.56;5081190;28;20047;-67
2023/07/20 09:04:24;;;;;;;2.33;1.80;;;;;;;22.24;54.71;101468.34;5090746;28;20537;-64
2023/07/20 09:06:50;;;;;;;2.38;1.67;;;;;;;21.97;55.29;101477.81;5088973;28;20048;-65
2023/07/20 09:09:15;;;;;;;2.92;1.60;;;;;;;21.72;54.18;101474.09;5089851;28;20032;-64
2023/07/20 09:11:41;;;;;;;2.15;1.38;;;;;;;22.44;60.37;101464.22;5074239;28;20043;-65
2023/07/20 09:14:08;;;;;;;14.63;2.05;;;;;;;22.95;55.57;101470.41;5074282;28;20050;-66
2023/07/20 09:16:50;;;;;;;1.60;0.85;;;;;;;23.08;57.34;101467.06;5089995;28;20061;-65
2023/07/20 09:19:16;;;;;;;1.10;0.80;;;;;;;23.41;55.19;101467.84;5048153;28;20261;-66
2023/07/20 09:21:47;;;;;;;2.97;1.17;;;;;;;23.67;56.76;101467.56;5048672;28;20070;-66
2023/07/20 09:24:13;;;;;;;2.40;0.93;;;;;;;24.18;56.29;101465.16;5049191;28;20052;-65
2023/07/20 09:26:45;;;;;;;3.97;0.98;;;;;;;24.54;53.43;101470.13;5059618;28;20028;-65
2023/07/20 09:29:11;;;;;;;7.03;1.20;;;;;;;24.63;52.11;101461.50;5082286;28;20357;-65
2023/07/20 09:31:37;;;;;;;1.42;1.00;;;;;;;24.81;51.70;101461.16;5069046;28;20054;-66
2023/07/20 09:34:04;;;;;;;2.20;1.10;;;;;;;24.69;53.45;101465.44;5088262;28;20573;-66
2023/07/20 09:36:33;;;;;;;1.23;1.08;;;;;;;24.50;51.81;101457.63;5081008;28;20435;-65
2023/07/20 09:38:59;;;;;;;1.92;1.10;;;;;;;24.41;52.49;101454.91;5067444;28;20357;-66
2023/07/20 09:41:25;;;;;;;2.53;0.90;;;;;;;24.72;53.09;101456.75;5069019;28;20052;-64
2023/07/20 09:43:51;;;;;;;2.25;0.93;;;;;;;24.64;48.89;101457.66;5079474;28;20032;-64
2023/07/20 09:46:17;;;;;;;3.72;0.90;;;;;;;24.49;47.98;101455.91;5069038;28;20082;-67
2023/07/20 09:48:52;;;;;;;0.95;0.90;;;;;;;24.06;47.83;101449.94;5083769;28;20036;-67
2023/07/20 09:51:20;;;;;;;3.03;0.88;;;;;;;23.68;47.33;101450.72;5088812;28;20410;-65
2023/07/20 09:53:48;;;;;;;1.33;0.90;;;;;;;23.61;50.24;101452.47;5088698;28;20491;-64
2023/07/20 09:56:16;;;;;;;1.30;0.80;;;;;;;24.09;51.45;101446.81;5088026;28;20035;-64
2023/07/20 09:58:42;;;;;;;0.88;0.70;;;;;;;24.69;49.81;101446.84;5069736;28;20440;-68
2023/07/20 10:01:10;;;;;;;0.85;0.70;;;;;;;25.43;48.34;101441.31;5084950;28;20116;-66
2023/07/20 10:03:37;;;;;;;1.45;0.73;;;;;;;25.67;45.13;101442.03;5083381;28;20105;-66
2023/07/20 10:06:08;;;;;;;1.38;0.70;;;;;;;26.04;47.72;101431.78;5088596;28;20090;-64
2023/07/20 10:08:40;;;;;;;0.80;0.73;;;;;;;25.95;44.33;101440.25;5088392;28;20487;-65
2023/07/20 10:11:07;;;;;;;0.77;0.57;;;;;;;26.02;44.43;101440.34;5079388;28;20139;-65
2023/07/20 10:13:38;;;;;;;1.58;0.70;;;;;;;25.80;46.58;101433.00;5067964;28;20064;-65
2023/07/20 10:16:09;;;;;;;1.05;0.80;;;;;;;25.62;46.95;101437.06;5087336;28;20132;-65
2023/07/20 10:19:02;;;;;;;0.75;0.75;;;;;;;25.32;46.04;101433.47;5087068;28;20040;-65
2023/07/20 10:21:29;;;;;;;3.30;0.77;;;;;;;25.73;46.59;101426.44;5088806;28;20036;-65
2023/07/20 10:23:57;;;;;;;1.55;0.75;;;;;;;26.36;47.26;101425.66;5076699;28;20044;-64
2023/07/20 10:26:23;;;;;;;1.45;0.85;;;;;;;26.51;44.75;101421.94;5068259;28;20153;-64
2023/07/20 10:28:49;;;;;;;0.43;0.43;;;;;;;26.37;46.35;101421.78;5069620;28;20063;-65
2023/07/20 10:31:16;;;;;;;1.08;0.65;;;;;;;26.19;46.62;101424.19;5088398;28;20048;-66
2023/07/20 10:33:43;;;;;;;1.20;0.70;;;;;;;26.22;46.94;101425.72;5085075;28;20115;-64
2023/07/20 10:36:12;;;;;;;1.20;0.70;;;;;;;26.74;46.40;101424.50;5086438;28;20031;-66
2023/07/20 10:38:47;;;;;;;0.75;0.70;;;;;;;26.75;44.64;101423.41;5047554;28;20041;-66
2023/07/20 10:41:35;;;;;;;1.33;0.73;;;;;;;26.35;45.70;101423.06;5046977;28;20057;-65
2023/07/20 10:44:02;;;;;;;0.70;0.65;;;;;;;25.64;43.91;101414.56;5055897;28;20171;-65
2023/07/20 10:47:05;;;;;;;2.80;0.90;;;;;;;25.24;46.85;101419.63;5088389;28;20425;-67
2023/07/20 10:49:34;;;;;;;1.40;0.95;;;;;;;25.25;46.38;101407.44;5088380;28;20047;-65
2023/07/20 10:52:03;;;;;;;1.77;0.60;;;;;;;25.30;46.18;101412.41;5087067;28;20355;-65
2023/07/20 10:54:28;;;;;;;0.98;0.60;;;;;;;25.30;46.80;101406.84;5087482;28;20044;-65
2023/07/20 10:56:56;;;;;;;1.23;0.65;;;;;;;25.30;46.01;101413.28;5086471;28;20036;-66
2023/07/20 10:59:24;;;;;;;1.25;0.70;;;;;;;25.27;47.92;101419.22;5079401;28;20459;-64
2023/07/20 11:01:55;;;;;;;1.35;0.70;;;;;;;24.85;45.23;101417.94;5067592;28;20071;-66
2023/07/20 11:04:44;;;;;;;1.90;0.80;;;;;;;24.82;48.44;101412.78;5087717;28;20604;-66
2023/07/20 11:07:14;;;;;;;3.05;0.75;;;;;;;24.82;45.32;101410.00;5081370;28;20122;-65
2023/07/20 11:09:41;;;;;;;1.13;0.80;;;;;;;24.75;47.34;101411.81;5087457;28;20051;-66
2023/07/20 11:12:11;;;;;;;1.17;0.70;;;;;;;25.24;47.49;101411.28;5087285;28;20061;-65
2023/07/20 11:14:41;;;;;;;2.42;1.00;;;;;;;25.50;46.15;101407.09;5076432;28;20071;-64
2023/07/20 11:17:14;;;;;;;0.80;0.80;;;;;;;25.56;45.90;101403.53;5069921;28;20047;-65
2023/07/20 11:19:43;;;;;;;1.13;0.80;;;;;;;25.45;46.50;101402.97;5087341;28;20063;-68
2023/07/20 11:22:09;;;;;;;0.98;0.70;;;;;;;25.21;45.02;101408.00;5085457;28;20043;-65